Sincerity Ace — 3FFD7 — position and weather

sailwx.info

Track history (hours):
 
Tides and Currents Weather Stations Pressure Air Temp Water Temp Dewpoint Dewpoint Depression Visibility Wind Speed Wind Dir Waves Ship Positions

Sincerity Ace

Last reported at 2014-Oct-20 00:07 UTC. Time now 2014-Oct-24 21:30 UTC.
Position N 34°21' W 120°30'.

Length 200 m; draft 7.9 m.

Type: Cargo ship. MMSI: 351690000.

Date/timePositionNaut miles runAvg speedWind from/ knotsBaromVisibWave heightAir tempDewpointWater temp
2014-Oct-20 00:07N 34°21' W 120°30'916.8
2014-Oct-19 23:33N 34°18' W 120°19'1616.4
2014-Oct-19 22:33N 34°14' W 119°60'1616.0
2014-Oct-19 21:33N 34°10' W 119°41'1111.3
2014-Oct-19 20:33N 34°07' W 119°28'12 9.6
2014-Oct-19 19:18N 34°08' W 119°13'1 0.3
2014-Oct-19 15:32N 34°09' W 119°12'0 0.0
2014-Oct-19 14:14N 34°09' W 119°12'0 0.0
2014-Oct-19 13:23N 34°09' W 119°12'0 0.0
2014-Oct-19 12:26N 34°09' W 119°12'0 0.0
2014-Oct-19 11:32N 34°09' W 119°12'0 0.0
2014-Oct-19 10:29N 34°09' W 119°12'0 0.0
2014-Oct-19 09:32N 34°09' W 119°12'0 0.0
2014-Oct-19 08:29N 34°09' W 119°12'0 0.1
2014-Oct-19 07:33N 34°09' W 119°12'5 4.8
2014-Oct-19 06:31N 34°04' W 119°13'10 9.0
2014-Oct-19 05:24N 33°58' W 119°03'8 9.2
2014-Oct-19 04:33N 33°55' W 118°54'1110.5
2014-Oct-19 03:33N 33°50' W 118°43'1611.6
2014-Oct-19 02:11N 33°42' W 118°27'811.3
2014-Oct-19 01:30N 33°39' W 118°19'8 8.1
2014-Oct-19 00:33N 33°43' W 118°11'2 1.9
2014-Oct-18 23:33N 33°45' W 118°13'0 0.0
2014-Oct-18 22:30N 33°45' W 118°13'0 0.0
2014-Oct-18 21:32N 33°45' W 118°13'0 0.0
2014-Oct-18 20:32N 33°45' W 118°13'0 0.0
2014-Oct-18 19:32N 33°45' W 118°13'0 0.0
2014-Oct-18 18:32N 33°45' W 118°13'0 0.0
2014-Oct-18 17:32N 33°45' W 118°13'0 0.0
2014-Oct-18 16:32N 33°45' W 118°13'0 0.0
2014-Oct-18 15:33N 33°45' W 118°13'0 0.0
2014-Oct-18 14:33N 33°45' W 118°13'0 0.5
2014-Oct-18 13:33N 33°45' W 118°12'10 7.5
2014-Oct-18 12:11N 33°34' W 118°10'1311.9
2014-Oct-18 11:08N 33°23' W 118°04'711.7
2014-Oct-18 10:33N 33°16' W 118°02'1211.8
2014-Oct-18 09:33N 33°05' W 117°59'1817.8
2014-Oct-18 08:33N 32°48' W 117°54'1918.5
2014-Oct-18 07:33N 32°30' W 117°48'1918.6
2014-Oct-18 06:33N 32°12' W 117°40'  
Track history (hours):
 
Tides and Currents Weather Stations Pressure Air Temp Water Temp Dewpoint Dewpoint Depression Visibility Wind Speed Wind Dir Waves Ship Positions

Sincerity Ace

Last reported at 2014-Oct-20 00:07 UTC. Time now 2014-Oct-24 21:30 UTC.
Position N 34°21' W 120°30'.

Length 200 m; draft 7.9 m.

Type: Cargo ship. MMSI: 351690000.

Date/timePositionNaut miles runAvg speedWind from/ knotsBaromVisibWave heightAir tempDewpointWater temp
2014-Oct-20 00:07N 34°21' W 120°30'916.8
2014-Oct-19 23:33N 34°18' W 120°19'1616.4
2014-Oct-19 22:33N 34°14' W 119°60'1616.0
2014-Oct-19 21:33N 34°10' W 119°41'1111.3
2014-Oct-19 20:33N 34°07' W 119°28'12 9.6
2014-Oct-19 19:18N 34°08' W 119°13'1 0.3
2014-Oct-19 15:32N 34°09' W 119°12'0 0.0
2014-Oct-19 14:14N 34°09' W 119°12'0 0.0
2014-Oct-19 13:23N 34°09' W 119°12'0 0.0
2014-Oct-19 12:26N 34°09' W 119°12'0 0.0
2014-Oct-19 11:32N 34°09' W 119°12'0 0.0
2014-Oct-19 10:29N 34°09' W 119°12'0 0.0
2014-Oct-19 09:32N 34°09' W 119°12'0 0.0
2014-Oct-19 08:29N 34°09' W 119°12'0 0.1
2014-Oct-19 07:33N 34°09' W 119°12'5 4.8
2014-Oct-19 06:31N 34°04' W 119°13'10 9.0
2014-Oct-19 05:24N 33°58' W 119°03'8 9.2
2014-Oct-19 04:33N 33°55' W 118°54'1110.5
2014-Oct-19 03:33N 33°50' W 118°43'1611.6
2014-Oct-19 02:11N 33°42' W 118°27'811.3
2014-Oct-19 01:30N 33°39' W 118°19'8 8.1
2014-Oct-19 00:33N 33°43' W 118°11'2 1.9
2014-Oct-18 23:33N 33°45' W 118°13'0 0.0
2014-Oct-18 22:30N 33°45' W 118°13'0 0.0
2014-Oct-18 21:32N 33°45' W 118°13'0 0.0
2014-Oct-18 20:32N 33°45' W 118°13'0 0.0
2014-Oct-18 19:32N 33°45' W 118°13'0 0.0
2014-Oct-18 18:32N 33°45' W 118°13'0 0.0
2014-Oct-18 17:32N 33°45' W 118°13'0 0.0
2014-Oct-18 16:32N 33°45' W 118°13'0 0.0
2014-Oct-18 15:33N 33°45' W 118°13'0 0.0
2014-Oct-18 14:33N 33°45' W 118°13'0 0.5
2014-Oct-18 13:33N 33°45' W 118°12'10 7.5
2014-Oct-18 12:11N 33°34' W 118°10'1311.9
2014-Oct-18 11:08N 33°23' W 118°04'711.7
2014-Oct-18 10:33N 33°16' W 118°02'1211.8
2014-Oct-18 09:33N 33°05' W 117°59'1817.8
2014-Oct-18 08:33N 32°48' W 117°54'1918.5
2014-Oct-18 07:33N 32°30' W 117°48'1918.6
2014-Oct-18 06:33N 32°12' W 117°40'  

Dump ship's entire track history